Terminal Aerodrome Forecast
Issued by NWS

Home | Current Version | Previous Version | Graphics & Text | Print | Product List | Glossary Off
Versions: 1 2 3 4 5 6 7 8 9 10 11 12 13 14 15 16 17

000
FTUS43 KDDC 181100
TAFGCK
TAF
KGCK 181133Z 1812/1912 17010KT 6SM BR SCT012
     FM181500 18020G30KT P6SM SKC
     FM190200 17017KT P6SM SCT250=

USA.gov is the U.S. government's official web portal to all federal, state and local government web resources and services.